Castlebar Airport

Jump to: basic info | weather | comments

Related pages: nearby airports | nearby navaids | notams | map

Basic information (top)

Codes: CLB EICB
Location: lon 53.848400, lat -9.280370
Status: small_airport

Weather (top)

Current conditions for Ireland West Knock Airport 17nm (31km) ENE (rec'd 2014/04/18 05:30Z):

EIKN 180530Z 21002KT 0200W FG SCT004 BKN015 05/05 Q1022 NOSIG

Airport forecast for Ireland West Knock Airport 17nm (31km) ENE (rec'd 2014/04/17 00:25Z):

TAF EIKN 172300Z 1800/1824 VRB03KT 9999 SCT010 BKN020 
      TEMPO 1801/1808 3000 BR BKN005 PROB30 
      TEMPO 1803/1808 0500 FG BKN001 
      BECMG 1806/1809 16005KT 
      BECMG 1809/1812 21005KT 
      BECMG 1819/1821 26006KT

Latest comments (top)

No longer exists.: This airport was closed in 2001 and the ... [read]

fv: fg [read]

More... (top)

See also NOTAMs and nearby airports and navaids, or visit the Castlebar Airport page at the main OurAirports website..